Time;durP1;ratioP1;P1;durP2;ratioP2;P2;SDS_P1;SDS_P2;PMS_P1;PMS_P2;Temp;Humidity;BMP_temperature;BMP_pressure;BME280_temperature;BME280_humidity;BME280_pressure;Samples;Min_cycle;Max_cycle;Signal;HPM_P1;HPM_P2
2022/11/14 00:00:10;;;;;;;13.70;10.93;;;;;;;14.56;67.41;101909.69;4941208;28;119440;-71
2022/11/14 00:02:58;;;;;;;13.90;11.27;;;;;;;14.55;67.22;101919.19;4945362;28;120573;-72
2022/11/14 00:05:44;;;;;;;13.82;11.65;;;;;;;14.56;67.19;101912.44;4941139;28;119770;-72
2022/11/14 00:08:28;;;;;;;15.85;12.23;;;;;;;14.42;66.88;101886.06;4943581;28;119462;-71
2022/11/14 00:11:12;;;;;;;15.25;12.25;;;;;;;14.52;67.16;101902.75;4958297;28;120319;-71
2022/11/14 00:13:56;;;;;;;15.80;13.02;;;;;;;14.55;67.40;101902.63;4940221;28;119770;-72
2022/11/14 00:16:41;;;;;;;15.50;13.20;;;;;;;14.56;67.10;101898.63;4943312;28;119964;-71
2022/11/14 00:19:25;;;;;;;18.30;13.43;;;;;;;14.57;67.37;101891.91;4941046;28;119723;-71
2022/11/14 00:22:10;;;;;;;16.67;13.40;;;;;;;14.57;67.25;101888.38;4939673;28;120303;-71
2022/11/14 00:24:54;;;;;;;18.05;14.18;;;;;;;14.58;67.45;101890.69;4943595;28;119959;-71
2022/11/14 00:27:38;;;;;;;17.20;14.60;;;;;;;14.59;67.07;101874.88;4944521;28;119830;-72
2022/11/14 00:30:23;;;;;;;17.42;14.73;;;;;;;14.56;66.39;101886.81;4941651;28;120596;-72
2022/11/14 00:33:08;;;;;;;17.13;14.40;;;;;;;14.51;66.42;101871.59;4941966;28;119980;-71
2022/11/14 00:35:55;;;;;;;19.30;15.37;;;;;;;14.50;66.81;101867.31;4940213;28;120299;-71
2022/11/14 00:38:39;;;;;;;18.70;15.07;;;;;;;14.51;67.17;101865.31;4941563;28;120015;-71
2022/11/14 00:41:24;;;;;;;18.05;15.38;;;;;;;14.54;66.38;101862.44;4942492;28;119966;-72
2022/11/14 00:44:08;;;;;;;20.20;15.55;;;;;;;14.54;66.68;101859.66;4942290;28;120074;-71
2022/11/14 00:46:52;;;;;;;19.70;16.00;;;;;;;14.58;66.72;101856.78;4953931;28;119845;-74
2022/11/14 00:49:37;;;;;;;20.38;15.82;;;;;;;14.62;66.86;101858.19;4943649;28;120029;-72
2022/11/14 00:52:21;;;;;;;19.20;15.73;;;;;;;14.65;66.34;101854.50;4942141;28;120016;-72
2022/11/14 00:55:06;;;;;;;19.88;16.65;;;;;;;14.63;66.11;101843.16;4942042;28;119616;-71
2022/11/14 00:57:50;;;;;;;21.85;16.67;;;;;;;14.64;66.49;101839.16;4940348;28;120383;-72
2022/11/14 01:00:35;;;;;;;19.25;16.02;;;;;;;14.60;66.08;101837.75;4943598;28;120050;-71
2022/11/14 01:03:19;;;;;;;20.67;16.60;;;;;;;14.56;66.05;101837.91;4941043;28;119834;-72
2022/11/14 01:06:06;;;;;;;20.27;16.30;;;;;;;14.56;66.10;101826.84;4939746;28;122027;-72
2022/11/14 01:08:51;;;;;;;20.83;16.02;;;;;;;14.56;66.15;101831.59;4941199;28;120207;-72
2022/11/14 01:11:35;;;;;;;19.53;16.43;;;;;;;14.52;66.11;101820.69;4942047;28;120446;-71
2022/11/14 01:14:19;;;;;;;19.27;15.90;;;;;;;14.47;65.69;101823.25;4943307;28;119921;-71
2022/11/14 01:17:03;;;;;;;19.05;15.90;;;;;;;14.46;65.36;101822.50;4941557;28;119721;-73
2022/11/14 01:19:47;;;;;;;20.57;16.00;;;;;;;14.46;65.93;101805.94;4943325;28;120192;-72
2022/11/14 01:22:32;;;;;;;19.85;15.88;;;;;;;14.49;65.67;101810.56;4939555;28;119852;-72
2022/11/14 01:25:16;;;;;;;19.65;15.30;;;;;;;14.51;65.74;101805.34;4941255;28;119455;-72
2022/11/14 01:28:01;;;;;;;19.85;15.48;;;;;;;14.48;65.11;101797.97;4942224;28;119836;-71
2022/11/14 01:30:45;;;;;;;20.48;16.02;;;;;;;14.45;65.67;101787.06;4941631;28;120680;-72
2022/11/14 01:33:29;;;;;;;21.30;16.10;;;;;;;14.47;65.65;101776.34;4941791;28;120200;-70
2022/11/14 01:36:14;;;;;;;20.83;16.60;;;;;;;14.38;65.76;101765.97;4940523;28;120303;-71
2022/11/14 01:38:58;;;;;;;21.42;16.35;;;;;;;14.48;65.32;101777.88;4930037;28;119675;-71
2022/11/14 01:41:42;;;;;;;19.52;15.77;;;;;;;14.47;65.25;101774.34;4941743;28;119746;-71
2022/11/14 01:44:48;;;;;;;22.42;16.45;;;;;;;14.49;65.64;101765.59;4939503;28;119861;-72
2022/11/14 01:47:34;;;;;;;24.58;17.27;;;;;;;14.51;65.18;101765.94;4941125;28;120213;-72
2022/11/14 01:50:28;;;;;;;20.25;16.90;;;;;;;14.50;65.56;101767.91;4938678;28;120543;-71
2022/11/14 01:53:12;;;;;;;22.90;17.58;;;;;;;14.50;65.39;101759.63;4940162;28;120024;-71
2022/11/14 01:56:02;;;;;;;22.83;17.85;;;;;;;14.53;65.31;101761.50;4940760;28;120365;-72
2022/11/14 01:58:53;;;;;;;23.50;18.60;;;;;;;14.52;64.89;101754.44;4931689;28;122336;-71
2022/11/14 02:01:45;;;;;;;24.02;20.00;;;;;;;14.50;64.77;101756.09;4940895;28;119966;-71
2022/11/14 02:04:36;;;;;;;23.48;20.00;;;;;;;14.42;64.14;101750.03;4959939;28;120469;-71
2022/11/14 02:07:23;;;;;;;25.75;21.23;;;;;;;14.37;64.60;101734.06;4947114;28;120258;-71
2022/11/14 02:10:14;;;;;;;25.20;21.10;;;;;;;14.34;64.64;101734.97;4948481;28;120170;-71
2022/11/14 02:13:04;;;;;;;24.95;21.83;;;;;;;14.32;64.31;101738.16;4946729;28;120407;-71
2022/11/14 02:15:49;;;;;;;28.55;22.80;;;;;;;14.34;64.62;101734.97;4946553;28;119638;-72
2022/11/14 02:18:33;;;;;;;31.37;25.33;;;;;;;14.27;64.02;101724.97;4948298;28;120370;-72
2022/11/14 02:21:17;;;;;;;29.23;25.02;;;;;;;14.24;64.38;101723.09;4946458;28;120580;-71
2022/11/14 02:24:04;;;;;;;30.55;25.77;;;;;;;14.26;64.29;101715.16;4947715;28;120384;-71
2022/11/14 02:26:49;;;;;;;30.25;25.42;;;;;;;14.27;64.54;101718.66;4947004;28;120122;-72
2022/11/14 02:29:34;;;;;;;30.15;26.05;;;;;;;14.26;64.47;101709.63;4951987;28;119941;-71
2022/11/14 02:32:18;;;;;;;32.43;26.93;;;;;;;14.27;64.61;101704.88;4952766;28;120051;-71
2022/11/14 02:35:03;;;;;;;31.40;26.10;;;;;;;14.28;64.07;101709.16;4938207;28;119645;-72
2022/11/14 02:37:56;;;;;;;33.57;28.03;;;;;;;14.22;64.18;101697.94;4943655;28;119984;-71
2022/11/14 02:40:40;;;;;;;37.90;28.83;;;;;;;14.16;63.73;101701.72;4947497;28;120446;-72
2022/11/14 02:43:25;;;;;;;37.67;28.60;;;;;;;14.16;64.50;101701.72;4948113;28;120422;-72
2022/11/14 02:46:10;;;;;;;36.78;28.83;;;;;;;14.16;64.56;101702.50;4933080;28;120066;-71
2022/11/14 02:48:54;;;;;;;35.40;28.67;;;;;;;14.17;64.19;101698.50;4949959;28;121189;-71
2022/11/14 02:51:40;;;;;;;41.58;30.00;;;;;;;14.19;64.17;101692.53;4946074;28;120228;-71
2022/11/14 02:54:24;;;;;;;40.42;30.38;;;;;;;14.18;63.85;101677.22;4951993;28;120155;-72
2022/11/14 02:57:31;;;;;;;40.80;31.73;;;;;;;14.17;64.19;101684.72;4943824;28;119632;-71
2022/11/14 03:00:16;;;;;;;39.45;31.05;;;;;;;14.19;63.94;101689.78;4946038;28;119632;-71
2022/11/14 03:03:00;;;;;;;39.25;30.88;;;;;;;14.14;63.91;101680.09;4945975;28;119971;-72
2022/11/14 03:05:44;;;;;;;44.35;32.97;;;;;;;14.13;63.87;101684.09;4944353;28;120084;-72
2022/11/14 03:08:29;;;;;;;51.50;33.10;;;;;;;14.11;64.30;101673.50;4941488;28;120079;-72
2022/11/14 03:11:13;;;;;;;45.13;33.47;;;;;;;14.13;64.21;101667.53;4928374;28;120243;-72
2022/11/14 03:13:58;;;;;;;42.28;33.75;;;;;;;14.13;63.77;101665.53;4943620;28;120419;-71
2022/11/14 03:16:43;;;;;;;49.13;34.80;;;;;;;14.11;64.11;101656.94;4944979;28;121456;-71
2022/11/14 03:19:27;;;;;;;47.65;36.15;;;;;;;14.13;63.86;101665.53;4943500;28;120136;-72
2022/11/14 03:22:12;;;;;;;45.95;34.83;;;;;;;14.12;64.05;101664.00;4943277;28;120319;-72
2022/11/14 03:24:56;;;;;;;45.53;34.70;;;;;;;14.08;63.57;101659.84;4942409;28;119742;-72
2022/11/14 03:27:40;;;;;;;45.00;35.30;;;;;;;14.03;63.73;101657.66;4940368;28;122175;-71
2022/11/14 03:30:24;;;;;;;42.80;34.90;;;;;;;13.99;64.02;101654.28;4942303;28;119886;-71
2022/11/14 03:33:09;;;;;;;45.63;34.78;;;;;;;13.97;64.19;101646.44;4943204;28;119400;-71
2022/11/14 03:35:53;;;;;;;44.80;34.85;;;;;;;13.98;64.46;101653.50;4941996;28;120091;-71
2022/11/14 03:38:38;;;;;;;48.40;34.95;;;;;;;13.97;64.34;101634.66;4939584;28;119973;-72
2022/11/14 03:41:22;;;;;;;46.35;34.25;;;;;;;14.01;64.27;101638.03;4946969;28;120238;-71
2022/11/14 03:44:07;;;;;;;43.45;34.45;;;;;;;14.01;63.95;101625.00;4942561;28;120230;-72
2022/11/14 03:46:52;;;;;;;42.28;33.42;;;;;;;13.99;63.80;101630.22;4942321;28;120012;-72
2022/11/14 03:49:37;;;;;;;41.60;33.57;;;;;;;14.01;64.55;101622.25;4941497;28;120355;-71
2022/11/14 03:52:21;;;;;;;44.23;33.87;;;;;;;14.04;64.05;101626.88;4941044;28;120175;-71
2022/11/14 03:55:06;;;;;;;41.70;33.63;;;;;;;14.07;63.90;101617.69;4943519;28;119677;-72
2022/11/14 03:57:55;;;;;;;41.90;33.57;;;;;;;14.03;63.76;101611.53;4942871;28;120091;-71
2022/11/14 04:00:39;;;;;;;41.23;33.37;;;;;;;13.99;63.73;101613.66;4942067;28;120067;-71
2022/11/14 04:03:24;;;;;;;41.53;33.57;;;;;;;13.98;64.06;101612.13;4942987;28;120089;-71
2022/11/14 04:06:08;;;;;;;46.85;35.50;;;;;;;13.99;64.29;101613.66;4946503;28;120002;-71
2022/11/14 04:08:53;;;;;;;43.97;35.13;;;;;;;13.96;64.20;101597.22;4940168;28;121144;-71
2022/11/14 04:11:37;;;;;;;44.92;35.53;;;;;;;13.93;63.63;101598.91;4940699;28;120050;-70
2022/11/14 04:14:22;;;;;;;46.00;36.08;;;;;;;13.90;63.84;101601.78;4943584;28;119662;-71
2022/11/14 04:17:06;;;;;;;44.78;34.95;;;;;;;13.88;64.04;101607.75;4941136;28;119912;-71
2022/11/14 04:19:50;;;;;;;44.53;35.87;;;;;;;13.90;63.98;101602.56;4940616;28;119942;-71
2022/11/14 04:22:35;;;;;;;44.20;35.28;;;;;;;13.90;63.96;101599.81;4939857;28;119640;-71
2022/11/14 04:25:19;;;;;;;45.00;36.07;;;;;;;13.90;64.12;101594.28;4941664;28;119609;-71
2022/11/14 04:28:03;;;;;;;44.03;35.75;;;;;;;13.90;63.46;101588.00;4943237;28;120035;-72
2022/11/14 04:30:47;;;;;;;46.22;36.22;;;;;;;13.86;63.59;101582.63;4946804;28;119571;-71
2022/11/14 04:33:31;;;;;;;47.77;36.73;;;;;;;13.86;64.29;101581.84;4941690;28;120559;-72
2022/11/14 04:36:19;;;;;;;47.53;36.70;;;;;;;13.92;64.31;101574.53;4941888;28;120276;-71
2022/11/14 04:39:24;;;;;;;46.05;36.00;;;;;;;13.94;63.76;101566.56;4937864;28;120359;-71
2022/11/14 04:42:08;;;;;;;51.07;36.00;;;;;;;13.90;63.95;101566.72;4941457;28;120032;-70
2022/11/14 04:44:52;;;;;;;51.97;36.25;;;;;;;13.91;63.42;101567.47;4941827;28;119876;-71
2022/11/14 04:47:37;;;;;;;52.27;37.10;;;;;;;13.91;63.58;101567.47;4941103;28;119895;-72
2022/11/14 04:50:21;;;;;;;55.42;37.10;;;;;;;13.86;63.64;101557.03;4925400;28;120903;-71
2022/11/14 04:53:05;;;;;;;53.27;36.00;;;;;;;13.90;63.95;101557.66;4940876;28;120061;-71
2022/11/14 04:55:50;;;;;;;53.70;37.35;;;;;;;13.89;63.88;101554.13;4944627;28;119922;-71
2022/11/14 04:58:34;;;;;;;59.85;37.80;;;;;;;13.88;63.96;101552.59;4941958;28;119923;-71
2022/11/14 05:01:19;;;;;;;50.78;36.53;;;;;;;13.88;63.03;101552.59;4940693;28;120060;-71
2022/11/14 05:04:03;;;;;;;53.22;36.35;;;;;;;13.85;63.33;101550.75;4939542;28;119503;-73
2022/11/14 05:06:50;;;;;;;46.17;35.27;;;;;;;13.81;63.29;101544.59;4941348;28;120000;-72
2022/11/14 05:09:35;;;;;;;55.60;37.22;;;;;;;13.85;63.83;101550.75;4940347;28;119932;-71
2022/11/14 05:12:19;;;;;;;56.65;38.22;;;;;;;13.84;63.50;101543.69;4941595;28;120389;-71
2022/11/14 05:15:04;;;;;;;56.78;38.08;;;;;;;13.84;63.76;101535.44;4940380;28;119729;-72
2022/11/14 05:17:48;;;;;;;52.63;36.97;;;;;;;13.80;62.83;101532.03;4940564;28;119991;-72
2022/11/14 05:20:33;;;;;;;52.63;38.40;;;;;;;13.81;63.74;101541.84;4943615;28;120626;-72
2022/11/14 05:23:23;;;;;;;53.45;37.75;;;;;;;13.81;63.32;101537.09;4939025;28;120402;-71
2022/11/14 05:26:10;;;;;;;53.97;37.25;;;;;;;13.83;63.59;101540.19;4940517;28;119540;-72
2022/11/14 05:28:54;;;;;;;55.30;37.45;;;;;;;13.90;63.36;101543.88;4941503;28;119780;-71
2022/11/14 05:31:57;;;;;;;56.63;38.83;;;;;;;13.90;63.00;101543.88;4938537;28;119931;-71
2022/11/14 05:34:41;;;;;;;56.53;38.45;;;;;;;13.87;63.62;101540.03;4939221;28;119993;-71
2022/11/14 05:37:25;;;;;;;61.50;39.35;;;;;;;13.84;63.37;101543.69;4942135;28;119908;-72
2022/11/14 05:40:10;;;;;;;61.65;39.00;;;;;;;13.82;63.34;101538.63;4940451;28;120093;-71
2022/11/14 05:42:55;;;;;;;53.45;39.28;;;;;;;13.82;63.63;101532.34;4943557;28;119923;-71
2022/11/14 05:45:40;;;;;;;49.88;38.20;;;;;;;13.80;63.50;101526.53;4939983;28;119577;-71
2022/11/14 05:48:24;;;;;;;48.90;38.45;;;;;;;13.81;63.26;101528.06;4939389;28;120366;-72
2022/11/14 05:51:11;;;;;;;51.40;38.88;;;;;;;13.79;63.52;101530.50;4941717;28;119468;-71
2022/11/14 05:53:55;;;;;;;53.60;38.97;;;;;;;13.76;63.20;101525.91;4940027;28;119760;-71
2022/11/14 05:56:39;;;;;;;47.85;37.47;;;;;;;13.78;63.66;101526.22;4939539;28;119977;-71
2022/11/14 05:59:24;;;;;;;60.73;40.30;;;;;;;13.80;63.28;101523.78;4941692;28;119487;-71
2022/11/14 06:02:08;;;;;;;51.85;39.28;;;;;;;13.82;63.84;101524.09;4941357;28;119835;-72
2022/11/14 06:04:52;;;;;;;61.63;40.90;;;;;;;13.85;63.47;101527.91;4939574;28;120109;-71
2022/11/14 06:07:37;;;;;;;55.93;40.23;;;;;;;13.86;63.68;101521.19;4944655;28;120658;-72
2022/11/14 06:10:22;;;;;;;60.15;39.45;;;;;;;13.85;63.77;101525.94;4940058;28;120022;-71
2022/11/14 06:13:09;;;;;;;52.63;39.33;;;;;;;13.88;63.57;101527.78;4939351;28;119687;-70
2022/11/14 06:16:05;;;;;;;50.78;38.95;;;;;;;13.87;63.78;101531.00;4940502;28;120168;-71
2022/11/14 06:19:18;;;;;;;51.07;38.00;;;;;;;13.83;63.32;101531.13;4940230;28;120070;-72
2022/11/14 06:22:02;;;;;;;54.33;39.92;;;;;;;13.85;63.55;101525.16;4939569;28;120446;-71
2022/11/14 06:24:46;;;;;;;67.10;40.72;;;;;;;13.80;63.48;101524.53;4939897;28;120250;-72
2022/11/14 06:27:42;;;;;;;62.67;39.17;;;;;;;13.78;63.38;101526.97;4940296;28;119547;-72
2022/11/14 06:30:26;;;;;;;51.10;38.00;;;;;;;13.75;63.27;101527.88;4942314;28;120418;-71
2022/11/14 06:33:10;;;;;;;48.08;37.88;;;;;;;13.75;63.43;101522.38;4941200;28;120675;-71
2022/11/14 06:35:59;;;;;;;45.40;37.08;;;;;;;13.77;63.33;101525.44;4923390;28;120622;-72
2022/11/14 06:38:44;;;;;;;46.83;37.38;;;;;;;13.78;63.60;101521.47;4939780;28;120042;-72
2022/11/14 06:41:28;;;;;;;51.35;38.05;;;;;;;13.80;63.33;101532.03;4939569;28;119999;-71
2022/11/14 06:44:31;;;;;;;53.47;37.92;;;;;;;13.83;63.50;101529.16;4940801;28;120629;-71
2022/11/14 06:47:15;;;;;;;55.55;38.22;;;;;;;13.84;63.29;101521.63;4942974;28;119913;-72
2022/11/14 06:50:00;;;;;;;52.47;38.65;;;;;;;13.87;63.84;101517.97;4944396;28;119884;-70
2022/11/14 06:52:44;;;;;;;64.83;40.43;;;;;;;13.94;63.41;101525.97;4943996;28;120433;-70
2022/11/14 06:55:53;;;;;;;63.15;40.05;;;;;;;13.97;63.47;101525.09;4943636;28;120402;-71
2022/11/14 06:58:41;;;;;;;63.10;40.78;;;;;;;13.95;63.41;101516.47;4948023;28;120181;-72
2022/11/14 07:01:26;;;;;;;61.97;39.38;;;;;;;14.00;63.62;101521.41;4942370;28;120303;-71
2022/11/14 07:04:10;;;;;;;49.07;37.73;;;;;;;13.95;62.93;101524.75;4943132;28;120551;-70
2022/11/14 07:06:55;;;;;;;56.37;38.53;;;;;;;13.91;62.71;101526.88;4943460;28;119684;-71
2022/11/14 07:09:39;;;;;;;60.53;39.10;;;;;;;13.87;62.62;101531.00;4940057;28;120358;-71
2022/11/14 07:12:23;;;;;;;53.80;37.30;;;;;;;13.80;63.12;101521.00;4927303;28;120311;-72
2022/11/14 07:15:08;;;;;;;53.53;38.28;;;;;;;13.73;62.84;101524.06;4941965;28;120065;-72
2022/11/14 07:17:52;;;;;;;53.42;38.03;;;;;;;13.69;63.01;101521.41;4942429;28;119940;-71
2022/11/14 07:20:36;;;;;;;54.45;37.35;;;;;;;13.67;62.89;101525.84;4940963;28;119930;-71
2022/11/14 07:23:20;;;;;;;46.77;35.10;;;;;;;13.64;63.27;101522.00;4946775;28;119441;-72
2022/11/14 07:26:07;;;;;;;45.22;35.05;;;;;;;13.63;62.87;101522.44;4940437;28;120486;-71
2022/11/14 07:28:51;;;;;;;43.78;34.15;;;;;;;13.56;62.86;101512.47;4944588;28;120249;-71
2022/11/14 07:31:36;;;;;;;43.97;34.80;;;;;;;13.56;63.24;101519.97;4940062;28;121440;-72
2022/11/14 07:34:20;;;;;;;43.88;35.03;;;;;;;13.60;63.36;101517.84;4942195;28;120028;-71
2022/11/14 07:37:04;;;;;;;43.35;34.67;;;;;;;13.61;63.29;101520.13;4943907;28;119928;-71
2022/11/14 07:39:49;;;;;;;43.70;34.58;;;;;;;13.65;63.35;101517.25;4936902;28;119472;-71
2022/11/14 07:42:33;;;;;;;43.05;34.03;;;;;;;13.68;63.37;101519.09;4940304;28;120606;-71
2022/11/14 07:45:18;;;;;;;43.60;34.23;;;;;;;13.74;63.62;101509.81;4932464;28;120145;-70
2022/11/14 07:48:03;;;;;;;43.50;34.28;;;;;;;13.80;63.67;101507.22;4940261;28;119912;-71
2022/11/14 07:50:46;;;;;;;43.57;34.03;;;;;;;13.83;63.81;101507.09;4933292;28;119620;-71
2022/11/14 07:53:31;;;;;;;43.60;35.22;;;;;;;13.86;63.12;101499.91;4929512;28;119941;-71
2022/11/14 07:56:16;;;;;;;50.03;34.90;;;;;;;13.90;63.13;101495.00;4928306;28;120178;-71
2022/11/14 07:59:00;;;;;;;48.90;35.28;;;;;;;13.94;63.28;101500.38;4932198;28;120132;-71
2022/11/14 08:01:44;;;;;;;53.42;35.72;;;;;;;13.98;63.41;101501.03;4931647;28;119572;-72
2022/11/14 08:04:29;;;;;;;53.40;36.55;;;;;;;14.03;63.53;101492.91;4933487;28;120140;-71
2022/11/14 08:07:13;;;;;;;52.63;36.20;;;;;;;14.10;63.20;101491.88;4932005;28;120017;-72
2022/11/14 08:09:57;;;;;;;48.17;35.55;;;;;;;14.12;63.20;101497.69;4935344;28;119946;-72
2022/11/14 08:12:42;;;;;;;44.75;34.95;;;;;;;14.14;63.14;101493.25;4936324;28;119800;-71
2022/11/14 08:15:46;;;;;;;49.05;35.83;;;;;;;14.21;62.80;101492.22;4927450;28;119829;-71
2022/11/14 08:18:30;;;;;;;48.13;35.50;;;;;;;14.24;62.81;101490.53;4940353;28;119993;-71
2022/11/14 08:21:15;;;;;;;49.65;36.42;;;;;;;14.22;62.17;101495.75;4939746;28;119700;-72
2022/11/14 08:23:59;;;;;;;54.67;36.90;;;;;;;14.22;62.41;101490.22;4933031;28;120087;-71
2022/11/14 08:26:44;;;;;;;49.47;35.03;;;;;;;14.16;61.96;101483.75;4933572;28;120316;-71
2022/11/14 08:29:49;;;;;;;55.20;35.80;;;;;;;14.10;62.08;101487.13;4931417;28;119551;-72
2022/11/14 08:33:05;;;;;;;46.17;34.67;;;;;;;14.10;62.96;101483.59;4930637;28;119811;-72
2022/11/14 08:35:49;;;;;;;52.00;36.28;;;;;;;14.13;62.45;101477.91;4932623;28;119588;-71
2022/11/14 08:38:34;;;;;;;54.97;35.75;;;;;;;14.13;62.55;101469.66;4930161;28;120226;-72
2022/11/14 08:41:21;;;;;;;52.75;36.33;;;;;;;14.10;62.23;101470.56;4931013;28;120605;-71
2022/11/14 08:44:06;;;;;;;50.73;36.07;;;;;;;14.05;61.97;101468.41;4935335;28;119677;-71
2022/11/14 08:46:50;;;;;;;43.90;35.13;;;;;;;14.01;62.11;101459.50;4933555;28;120070;-72
2022/11/14 08:49:35;;;;;;;44.58;35.17;;;;;;;13.95;62.17;101452.25;4934125;28;119723;-72
2022/11/14 08:52:35;;;;;;;47.30;35.17;;;;;;;13.90;62.55;101461.91;4932157;28;120366;-72
2022/11/14 08:55:19;;;;;;;53.58;36.33;;;;;;;13.91;63.06;101449.66;4929523;28;120160;-72
2022/11/14 08:58:04;;;;;;;54.67;36.05;;;;;;;13.96;62.84;101451.84;4928365;28;120772;-72
2022/11/14 09:00:50;;;;;;;55.30;36.27;;;;;;;13.99;62.94;101450.16;4933787;28;119943;-72
2022/11/14 09:03:35;;;;;;;47.57;35.57;;;;;;;14.05;62.50;101442.81;4929417;28;119950;-71
2022/11/14 09:06:20;;;;;;;57.05;36.90;;;;;;;14.09;62.73;101444.19;4932265;28;121246;-71
2022/11/14 09:09:04;;;;;;;54.40;36.38;;;;;;;14.11;63.01;101436.22;4931266;28;120193;-72
2022/11/14 09:11:49;;;;;;;45.60;35.03;;;;;;;14.12;62.27;101431.47;4932529;28;120981;-72
2022/11/14 09:14:33;;;;;;;50.95;36.10;;;;;;;14.13;63.03;101427.50;4935499;28;119773;-72
2022/11/14 09:17:18;;;;;;;47.95;34.85;;;;;;;14.18;62.10;101428.88;4932565;28;119591;-71
2022/11/14 09:20:02;;;;;;;44.95;35.08;;;;;;;14.18;62.23;101431.63;4931459;28;120282;-73
2022/11/14 09:22:46;;;;;;;43.75;34.30;;;;;;;14.15;61.40;101427.81;4934229;28;119530;-73
2022/11/14 09:25:31;;;;;;;44.72;34.10;;;;;;;14.06;61.75;101431.31;4934082;28;120040;-72
2022/11/14 09:28:16;;;;;;;44.83;33.58;;;;;;;14.03;61.67;101429.47;4932619;28;119690;-71
2022/11/14 09:31:02;;;;;;;46.67;34.00;;;;;;;14.00;61.72;101422.13;4933532;28;119890;-72
2022/11/14 09:33:46;;;;;;;49.17;35.53;;;;;;;13.99;62.20;101415.06;4933465;28;120650;-73
2022/11/14 09:36:30;;;;;;;50.33;35.83;;;;;;;14.04;62.01;101408.94;4930159;28;119832;-72
2022/11/14 09:39:15;;;;;;;47.03;34.83;;;;;;;14.08;61.67;101415.06;4932443;28;120617;-72
2022/11/14 09:42:36;;;;;;;49.30;35.25;;;;;;;14.19;62.42;101416.63;4931704;28;120925;-72
2022/11/14 09:45:20;;;;;;;61.13;37.22;;;;;;;14.28;61.89;101427.69;4932133;28;120003;-71
2022/11/14 09:48:19;;;;;;;53.95;35.10;;;;;;;14.26;60.78;101427.38;4936590;28;119971;-71
2022/11/14 09:51:14;;;;;;;54.70;36.47;;;;;;;14.23;61.11;101425.53;4928017;28;120294;-71
2022/11/14 09:54:15;;;;;;;53.90;36.90;;;;;;;14.21;60.80;101422.47;4938643;28;120560;-71
2022/11/14 09:56:59;;;;;;;55.50;37.38;;;;;;;14.22;60.96;101413.72;4939159;28;120420;-71
2022/11/14 09:59:44;;;;;;;57.10;37.92;;;;;;;14.21;61.25;101419.72;4939316;28;119815;-72
2022/11/14 10:02:54;;;;;;;56.23;38.03;;;;;;;14.14;61.54;101415.22;4940688;28;120591;-71
2022/11/14 10:05:54;;;;;;;50.97;37.63;;;;;;;14.11;61.68;101419.69;4937448;28;122297;-71
2022/11/14 10:08:59;;;;;;;54.00;38.85;;;;;;;14.07;61.30;101418.28;4939279;28;119842;-71
2022/11/14 10:11:58;;;;;;;56.30;40.45;;;;;;;14.01;61.08;101423.66;4940375;28;119828;-71
2022/11/14 10:15:08;;;;;;;64.10;40.97;;;;;;;14.01;61.69;101417.38;4955253;28;121139;-72
2022/11/14 10:18:21;;;;;;;63.63;41.95;;;;;;;13.95;61.14;101406.16;4943248;28;120263;-71
2022/11/14 10:21:25;;;;;;;64.53;41.67;;;;;;;14.02;61.94;101405.88;4936308;28;120084;-72
2022/11/14 10:24:31;;;;;;;60.05;41.35;;;;;;;14.04;61.69;101402.66;4945125;28;120084;-71
2022/11/14 10:27:37;;;;;;;61.97;41.67;;;;;;;14.06;61.62;101395.47;4941166;28;119478;-71
2022/11/14 10:30:22;;;;;;;61.67;41.57;;;;;;;14.09;61.10;101391.00;4943216;28;120384;-71
2022/11/14 10:33:12;;;;;;;65.43;42.33;;;;;;;14.14;61.87;101390.41;4944865;28;120102;-71
2022/11/14 10:36:10;;;;;;;68.90;44.15;;;;;;;14.16;61.06;101400.97;4943058;28;119883;-72
2022/11/14 10:39:37;;;;;;;65.78;43.00;;;;;;;14.14;61.26;101393.94;4933827;28;120310;-72
2022/11/14 10:42:30;;;;;;;63.47;43.88;;;;;;;14.10;61.26;101393.31;4953340;28;120192;-71
2022/11/14 10:45:58;;;;;;;63.92;44.78;;;;;;;14.15;61.11;101405.72;4942481;28;119610;-71
2022/11/14 10:48:47;;;;;;;63.85;43.95;;;;;;;14.13;61.15;101395.16;4944615;28;120036;-71
2022/11/14 10:51:38;;;;;;;65.53;44.67;;;;;;;14.11;61.24;101399.59;4942721;28;120065;-71
2022/11/14 10:54:56;;;;;;;65.57;44.72;;;;;;;14.14;61.67;101399.44;4942386;28;120317;-71
2022/11/14 10:57:42;;;;;;;63.57;44.60;;;;;;;14.19;61.23;101400.81;4939361;28;119382;-71
2022/11/14 11:00:26;;;;;;;66.75;46.70;;;;;;;14.19;61.53;101380.75;4940713;28;119975;-71
2022/11/14 11:03:42;;;;;;;65.23;44.93;;;;;;;14.18;61.73;101377.22;4937494;28;119941;-71
2022/11/14 11:06:28;;;;;;;67.13;45.88;;;;;;;14.17;61.17;101374.91;4941814;28;120310;-71
2022/11/14 11:12:33;;;;;;;69.97;47.28;;;;;;;14.14;61.63;101371.84;4942222;28;120264;-71
2022/11/14 11:15:27;;;;;;;71.95;48.80;;;;;;;14.18;61.47;101368.19;4939141;28;121469;-71
2022/11/14 11:18:33;;;;;;;71.65;48.45;;;;;;;14.23;61.45;101353.78;4935001;28;121903;-72
2022/11/14 11:21:46;;;;;;;70.28;47.50;;;;;;;14.29;61.71;101365.75;4933722;28;120252;-71
2022/11/14 11:24:40;;;;;;;71.28;48.20;;;;;;;14.38;61.77;101363.75;4931663;28;120058;-71
2022/11/14 11:27:29;;;;;;;70.45;47.95;;;;;;;14.41;61.04;101359.28;4930591;28;120858;-71
2022/11/14 11:30:24;;;;;;;70.15;47.72;;;;;;;14.38;60.69;101361.00;4938669;28;119973;-71
2022/11/14 11:33:38;;;;;;;73.63;48.30;;;;;;;14.36;60.94;101360.69;4941992;28;119724;-72
2022/11/14 11:36:25;;;;;;;73.03;48.67;;;;;;;14.36;61.26;101362.69;4946517;28;120362;-71
2022/11/14 11:39:17;;;;;;;72.57;48.10;;;;;;;14.38;61.10;101352.72;4941263;28;119976;-71
2022/11/14 11:42:07;;;;;;;70.47;47.72;;;;;;;14.41;60.66;101353.78;4940244;28;120376;-71
2022/11/14 11:44:57;;;;;;;70.50;47.45;;;;;;;14.39;60.34;101332.16;4943562;28;119416;-71
2022/11/14 11:47:47;;;;;;;66.53;45.77;;;;;;;14.38;60.29;101347.19;4946858;28;120500;-72
2022/11/14 11:50:31;;;;;;;63.83;44.10;;;;;;;14.34;60.13;101340.28;4942149;28;119441;-71
2022/11/14 11:53:22;;;;;;;69.28;45.83;;;;;;;14.34;59.73;101335.53;4942513;28;120279;-71
2022/11/14 11:56:23;;;;;;;68.45;45.72;;;;;;;14.29;59.44;101338.16;4941458;28;120363;-72
2022/11/14 11:59:23;;;;;;;70.28;45.03;;;;;;;14.26;59.69;101328.81;4939129;28;120225;-71
2022/11/14 12:02:21;;;;;;;66.20;45.00;;;;;;;14.24;59.16;101322.97;4946421;28;119476;-72
2022/11/14 12:05:15;;;;;;;69.43;46.75;;;;;;;14.23;60.33;101318.69;4942795;28;120793;-71
2022/11/14 12:08:05;;;;;;;70.95;47.35;;;;;;;14.25;59.95;101316.22;4942041;28;120581;-71
2022/11/14 12:10:53;;;;;;;70.78;47.85;;;;;;;14.28;60.30;101314.53;4934838;28;120460;-71
2022/11/14 12:14:01;;;;;;;73.30;47.63;;;;;;;14.33;60.02;101316.69;4938941;28;120191;-72
2022/11/14 12:17:14;;;;;;;71.18;48.20;;;;;;;14.31;59.57;101313.63;4939466;28;119924;-71
2022/11/14 12:20:31;;;;;;;72.90;48.63;;;;;;;14.33;60.90;101298.13;4941323;28;119948;-71
2022/11/14 12:23:40;;;;;;;69.63;47.08;;;;;;;14.38;60.32;101299.50;4940532;28;120628;-71
2022/11/14 12:26:36;;;;;;;70.57;48.15;;;;;;;14.36;60.02;101301.97;4941220;28;119855;-71
2022/11/14 12:29:45;;;;;;;71.80;47.42;;;;;;;14.36;59.81;101296.44;4945462;28;119681;-71
2022/11/14 12:32:42;;;;;;;70.10;45.88;;;;;;;14.31;59.45;101288.78;4939301;28;120268;-71
2022/11/14 12:35:35;;;;;;;64.63;45.47;;;;;;;14.27;60.07;101282.66;4941920;28;119747;-71
2022/11/14 12:38:21;;;;;;;66.60;44.58;;;;;;;14.22;59.99;101286.03;4939559;28;119888;-71
2022/11/14 12:41:07;;;;;;;60.65;42.03;;;;;;;14.15;58.76;101281.56;4938982;28;119964;-72